sensor_id;sensor_type;location;lat;lon;timestamp;P1;durP1;ratioP1;P2;durP2;ratioP2
1719;SDS011;857;52.872;9.692;2023-05-10T00:01:11;5.33;;;3.87;;
1719;SDS011;857;52.872;9.692;2023-05-10T00:03:39;3.13;;;2.83;;
1719;SDS011;857;52.872;9.692;2023-05-10T00:06:07;3.90;;;3.60;;
1719;SDS011;857;52.872;9.692;2023-05-10T00:08:36;3.80;;;3.17;;
1719;SDS011;857;52.872;9.692;2023-05-10T00:11:03;4.30;;;3.90;;
1719;SDS011;857;52.872;9.692;2023-05-10T00:13:31;4.20;;;3.80;;
1719;SDS011;857;52.872;9.692;2023-05-10T00:15:59;3.17;;;2.87;;
1719;SDS011;857;52.872;9.692;2023-05-10T00:18:28;5.07;;;4.10;;
1719;SDS011;857;52.872;9.692;2023-05-10T00:20:55;3.80;;;3.10;;
1719;SDS011;857;52.872;9.692;2023-05-10T00:23:23;3.33;;;3.03;;
1719;SDS011;857;52.872;9.692;2023-05-10T00:25:52;3.80;;;3.40;;
1719;SDS011;857;52.872;9.692;2023-05-10T00:28:20;3.90;;;3.50;;
1719;SDS011;857;52.872;9.692;2023-05-10T00:30:47;3.17;;;2.87;;
1719;SDS011;857;52.872;9.692;2023-05-10T00:33:15;3.03;;;2.73;;
1719;SDS011;857;52.872;9.692;2023-05-10T00:35:43;2.80;;;2.57;;
1719;SDS011;857;52.872;9.692;2023-05-10T00:38:11;4.63;;;3.77;;
1719;SDS011;857;52.872;9.692;2023-05-10T00:40:39;3.60;;;3.30;;
1719;SDS011;857;52.872;9.692;2023-05-10T00:43:14;4.00;;;3.30;;
1719;SDS011;857;52.872;9.692;2023-05-10T00:45:42;4.93;;;3.53;;
1719;SDS011;857;52.872;9.692;2023-05-10T00:48:11;4.50;;;3.70;;
1719;SDS011;857;52.872;9.692;2023-05-10T00:50:38;4.20;;;3.37;;
1719;SDS011;857;52.872;9.692;2023-05-10T00:53:06;3.47;;;3.17;;
1719;SDS011;857;52.872;9.692;2023-05-10T00:55:34;3.60;;;3.07;;
1719;SDS011;857;52.872;9.692;2023-05-10T00:58:02;4.50;;;3.90;;
1719;SDS011;857;52.872;9.692;2023-05-10T01:00:31;4.20;;;3.90;;
1719;SDS011;857;52.872;9.692;2023-05-10T01:02:59;2.83;;;2.53;;
1719;SDS011;857;52.872;9.692;2023-05-10T01:05:27;3.67;;;3.20;;
1719;SDS011;857;52.872;9.692;2023-05-10T01:07:56;4.50;;;3.90;;
1719;SDS011;857;52.872;9.692;2023-05-10T01:10:24;3.60;;;3.30;;
1719;SDS011;857;52.872;9.692;2023-05-10T01:12:52;5.00;;;4.03;;
1719;SDS011;857;52.872;9.692;2023-05-10T01:15:20;4.77;;;3.90;;
1719;SDS011;857;52.872;9.692;2023-05-10T01:17:49;3.73;;;3.43;;
1719;SDS011;857;52.872;9.692;2023-05-10T01:20:17;4.60;;;4.17;;
1719;SDS011;857;52.872;9.692;2023-05-10T01:28:32;3.30;;;3.00;;
1719;SDS011;857;52.872;9.692;2023-05-10T01:31:12;5.90;;;4.27;;
1719;SDS011;857;52.872;9.692;2023-05-10T01:33:48;3.70;;;3.40;;
1719;SDS011;857;52.872;9.692;2023-05-10T01:36:23;5.00;;;4.50;;
1719;SDS011;857;52.872;9.692;2023-05-10T01:38:53;4.50;;;4.10;;
1719;SDS011;857;52.872;9.692;2023-05-10T01:41:31;4.17;;;3.80;;
1719;SDS011;857;52.872;9.692;2023-05-10T01:44:04;5.07;;;4.37;;
1719;SDS011;857;52.872;9.692;2023-05-10T01:46:33;4.47;;;4.07;;
1719;SDS011;857;52.872;9.692;2023-05-10T01:49:06;3.60;;;3.20;;
1719;SDS011;857;52.872;9.692;2023-05-10T01:51:36;3.20;;;2.90;;
1719;SDS011;857;52.872;9.692;2023-05-10T01:54:06;4.70;;;4.30;;
1719;SDS011;857;52.872;9.692;2023-05-10T01:56:35;4.80;;;4.37;;
1719;SDS011;857;52.872;9.692;2023-05-10T01:59:05;5.67;;;4.50;;
1719;SDS011;857;52.872;9.692;2023-05-10T02:01:34;4.60;;;3.70;;
1719;SDS011;857;52.872;9.692;2023-05-10T02:04:05;5.53;;;4.17;;
1719;SDS011;857;52.872;9.692;2023-05-10T02:06:34;4.40;;;4.00;;
1719;SDS011;857;52.872;9.692;2023-05-10T02:09:02;4.37;;;4.00;;
1719;SDS011;857;52.872;9.692;2023-05-10T02:11:30;5.50;;;4.37;;
1719;SDS011;857;52.872;9.692;2023-05-10T02:13:58;5.43;;;4.60;;
1719;SDS011;857;52.872;9.692;2023-05-10T02:16:27;8.23;;;4.00;;
1719;SDS011;857;52.872;9.692;2023-05-10T02:18:56;5.30;;;4.80;;
1719;SDS011;857;52.872;9.692;2023-05-10T02:21:26;6.17;;;4.27;;
1719;SDS011;857;52.872;9.692;2023-05-10T02:23:56;4.13;;;3.23;;
1719;SDS011;857;52.872;9.692;2023-05-10T02:26:24;5.17;;;4.37;;
1719;SDS011;857;52.872;9.692;2023-05-10T02:28:53;5.93;;;4.47;;
1719;SDS011;857;52.872;9.692;2023-05-10T02:31:21;5.37;;;4.40;;
1719;SDS011;857;52.872;9.692;2023-05-10T02:33:49;4.67;;;4.27;;
1719;SDS011;857;52.872;9.692;2023-05-10T02:36:18;4.07;;;3.67;;
1719;SDS011;857;52.872;9.692;2023-05-10T02:38:48;5.60;;;4.77;;
1719;SDS011;857;52.872;9.692;2023-05-10T02:41:17;4.57;;;3.93;;
1719;SDS011;857;52.872;9.692;2023-05-10T02:43:48;4.17;;;3.70;;
1719;SDS011;857;52.872;9.692;2023-05-10T02:46:16;5.30;;;4.80;;
1719;SDS011;857;52.872;9.692;2023-05-10T02:48:44;3.83;;;3.43;;
1719;SDS011;857;52.872;9.692;2023-05-10T02:51:12;5.77;;;4.37;;
1719;SDS011;857;52.872;9.692;2023-05-10T02:53:43;3.20;;;2.90;;
1719;SDS011;857;52.872;9.692;2023-05-10T02:56:13;3.57;;;3.27;;
1719;SDS011;857;52.872;9.692;2023-05-10T02:58:42;4.77;;;4.10;;
1719;SDS011;857;52.872;9.692;2023-05-10T03:01:10;4.50;;;4.00;;
1719;SDS011;857;52.872;9.692;2023-05-10T03:03:38;3.17;;;2.87;;
1719;SDS011;857;52.872;9.692;2023-05-10T03:06:05;4.83;;;4.40;;
1719;SDS011;857;52.872;9.692;2023-05-10T03:08:33;3.93;;;3.27;;
1719;SDS011;857;52.872;9.692;2023-05-10T03:11:06;4.90;;;4.40;;
1719;SDS011;857;52.872;9.692;2023-05-10T03:13:39;4.23;;;3.83;;
1719;SDS011;857;52.872;9.692;2023-05-10T03:16:12;6.87;;;4.40;;
1719;SDS011;857;52.872;9.692;2023-05-10T03:18:42;4.10;;;3.70;;
1719;SDS011;857;52.872;9.692;2023-05-10T03:21:11;5.17;;;4.00;;
1719;SDS011;857;52.872;9.692;2023-05-10T03:23:43;6.50;;;4.03;;
1719;SDS011;857;52.872;9.692;2023-05-10T03:26:12;6.20;;;4.57;;
1719;SDS011;857;52.872;9.692;2023-05-10T03:28:44;5.13;;;4.63;;
1719;SDS011;857;52.872;9.692;2023-05-10T03:31:13;6.67;;;4.70;;
1719;SDS011;857;52.872;9.692;2023-05-10T03:33:48;6.90;;;5.17;;
1719;SDS011;857;52.872;9.692;2023-05-10T03:36:20;4.50;;;4.10;;
1719;SDS011;857;52.872;9.692;2023-05-10T03:38:48;4.43;;;4.10;;
1719;SDS011;857;52.872;9.692;2023-05-10T03:41:16;5.40;;;3.80;;
1719;SDS011;857;52.872;9.692;2023-05-10T03:43:45;2.87;;;2.63;;
1719;SDS011;857;52.872;9.692;2023-05-10T03:46:13;4.93;;;4.47;;
1719;SDS011;857;52.872;9.692;2023-05-10T03:48:40;5.80;;;4.77;;
1719;SDS011;857;52.872;9.692;2023-05-10T03:51:08;6.23;;;4.50;;
1719;SDS011;857;52.872;9.692;2023-05-10T03:53:36;5.23;;;4.20;;
1719;SDS011;857;52.872;9.692;2023-05-10T03:56:03;4.67;;;4.23;;
1719;SDS011;857;52.872;9.692;2023-05-10T03:58:31;5.17;;;4.03;;
1719;SDS011;857;52.872;9.692;2023-05-10T04:01:00;4.80;;;4.40;;
1719;SDS011;857;52.872;9.692;2023-05-10T04:03:28;4.47;;;4.07;;
1719;SDS011;857;52.872;9.692;2023-05-10T04:05:59;4.60;;;4.20;;
1719;SDS011;857;52.872;9.692;2023-05-10T04:08:27;5.40;;;4.63;;
1719;SDS011;857;52.872;9.692;2023-05-10T04:11:04;3.60;;;3.30;;
1719;SDS011;857;52.872;9.692;2023-05-10T04:13:32;7.40;;;4.90;;
1719;SDS011;857;52.872;9.692;2023-05-10T04:16:01;4.30;;;3.80;;
1719;SDS011;857;52.872;9.692;2023-05-10T04:18:29;4.20;;;3.80;;
1719;SDS011;857;52.872;9.692;2023-05-10T04:20:57;6.27;;;5.20;;
1719;SDS011;857;52.872;9.692;2023-05-10T04:23:24;3.23;;;2.93;;
1719;SDS011;857;52.872;9.692;2023-05-10T04:25:52;5.57;;;4.37;;
1719;SDS011;857;52.872;9.692;2023-05-10T04:28:20;5.13;;;4.17;;
1719;SDS011;857;52.872;9.692;2023-05-10T04:30:47;5.67;;;4.50;;
1719;SDS011;857;52.872;9.692;2023-05-10T04:33:16;5.00;;;4.07;;
1719;SDS011;857;52.872;9.692;2023-05-10T04:35:44;6.70;;;5.27;;
1719;SDS011;857;52.872;9.692;2023-05-10T04:38:12;5.17;;;4.67;;
1719;SDS011;857;52.872;9.692;2023-05-10T04:40:40;4.70;;;4.20;;
1719;SDS011;857;52.872;9.692;2023-05-10T04:43:07;4.27;;;3.87;;
1719;SDS011;857;52.872;9.692;2023-05-10T04:45:35;3.43;;;3.13;;
1719;SDS011;857;52.872;9.692;2023-05-10T04:48:03;4.17;;;3.77;;
1719;SDS011;857;52.872;9.692;2023-05-10T04:50:32;5.17;;;4.57;;
1719;SDS011;857;52.872;9.692;2023-05-10T04:52:59;4.77;;;4.30;;
1719;SDS011;857;52.872;9.692;2023-05-10T04:55:27;4.80;;;4.00;;
1719;SDS011;857;52.872;9.692;2023-05-10T04:57:55;5.60;;;4.20;;
1719;SDS011;857;52.872;9.692;2023-05-10T05:00:24;4.70;;;4.30;;
1719;SDS011;857;52.872;9.692;2023-05-10T05:02:52;5.00;;;4.40;;
1719;SDS011;857;52.872;9.692;2023-05-10T05:05:20;7.83;;;4.50;;
1719;SDS011;857;52.872;9.692;2023-05-10T05:07:49;6.00;;;4.57;;
1719;SDS011;857;52.872;9.692;2023-05-10T05:10:16;3.87;;;3.47;;
1719;SDS011;857;52.872;9.692;2023-05-10T05:12:44;7.20;;;5.10;;
1719;SDS011;857;52.872;9.692;2023-05-10T05:15:11;3.27;;;2.97;;
1719;SDS011;857;52.872;9.692;2023-05-10T05:17:40;4.53;;;3.83;;
1719;SDS011;857;52.872;9.692;2023-05-10T05:20:09;5.33;;;4.10;;
1719;SDS011;857;52.872;9.692;2023-05-10T05:22:37;3.33;;;3.03;;
1719;SDS011;857;52.872;9.692;2023-05-10T05:25:06;7.10;;;3.43;;
1719;SDS011;857;52.872;9.692;2023-05-10T05:27:34;3.03;;;2.73;;
1719;SDS011;857;52.872;9.692;2023-05-10T05:30:02;3.47;;;3.17;;
1719;SDS011;857;52.872;9.692;2023-05-10T05:32:29;5.03;;;4.53;;
1719;SDS011;857;52.872;9.692;2023-05-10T05:34:57;4.20;;;3.80;;
1719;SDS011;857;52.872;9.692;2023-05-10T05:37:25;3.70;;;3.30;;
1719;SDS011;857;52.872;9.692;2023-05-10T05:39:52;4.90;;;4.50;;
1719;SDS011;857;52.872;9.692;2023-05-10T05:42:22;2.90;;;2.60;;
1719;SDS011;857;52.872;9.692;2023-05-10T05:44:50;6.67;;;5.20;;
1719;SDS011;857;52.872;9.692;2023-05-10T05:47:17;7.77;;;5.63;;
1719;SDS011;857;52.872;9.692;2023-05-10T05:49:45;4.87;;;4.37;;
1719;SDS011;857;52.872;9.692;2023-05-10T05:52:12;6.50;;;5.70;;
1719;SDS011;857;52.872;9.692;2023-05-10T05:54:40;4.80;;;4.40;;
1719;SDS011;857;52.872;9.692;2023-05-10T05:57:08;5.67;;;5.07;;
1719;SDS011;857;52.872;9.692;2023-05-10T05:59:38;6.57;;;5.90;;
1719;SDS011;857;52.872;9.692;2023-05-10T06:02:09;8.43;;;6.50;;
1719;SDS011;857;52.872;9.692;2023-05-10T06:04:36;7.33;;;5.60;;
1719;SDS011;857;52.872;9.692;2023-05-10T06:07:04;5.87;;;5.27;;
1719;SDS011;857;52.872;9.692;2023-05-10T06:09:32;6.03;;;5.33;;
1719;SDS011;857;52.872;9.692;2023-05-10T06:11:59;6.47;;;5.23;;
1719;SDS011;857;52.872;9.692;2023-05-10T06:14:27;6.20;;;5.60;;
1719;SDS011;857;52.872;9.692;2023-05-10T06:16:56;6.40;;;4.37;;
1719;SDS011;857;52.872;9.692;2023-05-10T06:19:25;6.50;;;5.80;;
1719;SDS011;857;52.872;9.692;2023-05-10T06:21:52;8.57;;;5.50;;
1719;SDS011;857;52.872;9.692;2023-05-10T06:24:20;6.13;;;5.50;;
1719;SDS011;857;52.872;9.692;2023-05-10T06:26:48;7.27;;;6.37;;
1719;SDS011;857;52.872;9.692;2023-05-10T06:29:16;7.93;;;5.30;;
1719;SDS011;857;52.872;9.692;2023-05-10T06:31:43;6.10;;;5.30;;
1719;SDS011;857;52.872;9.692;2023-05-10T06:34:13;6.23;;;5.57;;
1719;SDS011;857;52.872;9.692;2023-05-10T06:36:40;6.53;;;5.23;;
1719;SDS011;857;52.872;9.692;2023-05-10T06:39:08;7.33;;;5.60;;
1719;SDS011;857;52.872;9.692;2023-05-10T06:41:37;6.83;;;5.77;;
1719;SDS011;857;52.872;9.692;2023-05-10T06:44:04;5.73;;;4.80;;
1719;SDS011;857;52.872;9.692;2023-05-10T06:46:32;7.20;;;6.10;;
1719;SDS011;857;52.872;9.692;2023-05-10T06:49:00;7.93;;;6.23;;
1719;SDS011;857;52.872;9.692;2023-05-10T06:51:29;7.53;;;6.17;;
1719;SDS011;857;52.872;9.692;2023-05-10T06:53:58;7.40;;;5.43;;
1719;SDS011;857;52.872;9.692;2023-05-10T06:56:26;6.93;;;6.20;;
1719;SDS011;857;52.872;9.692;2023-05-10T06:58:53;7.27;;;6.03;;
1719;SDS011;857;52.872;9.692;2023-05-10T07:01:21;7.73;;;6.37;;
1719;SDS011;857;52.872;9.692;2023-05-10T07:03:49;6.77;;;6.07;;
1719;SDS011;857;52.872;9.692;2023-05-10T07:06:16;8.80;;;6.90;;
1719;SDS011;857;52.872;9.692;2023-05-10T07:08:45;8.30;;;6.63;;
1719;SDS011;857;52.872;9.692;2023-05-10T07:11:13;6.60;;;5.80;;
1719;SDS011;857;52.872;9.692;2023-05-10T07:13:40;6.37;;;5.40;;
1719;SDS011;857;52.872;9.692;2023-05-10T07:16:09;9.43;;;6.70;;
1719;SDS011;857;52.872;9.692;2023-05-10T07:18:37;9.00;;;6.83;;
1719;SDS011;857;52.872;9.692;2023-05-10T07:21:05;7.20;;;6.50;;
1719;SDS011;857;52.872;9.692;2023-05-10T07:23:32;4.67;;;3.80;;
1719;SDS011;857;52.872;9.692;2023-05-10T07:26:01;8.30;;;6.93;;
1719;SDS011;857;52.872;9.692;2023-05-10T07:28:29;10.13;;;7.17;;
1719;SDS011;857;52.872;9.692;2023-05-10T07:30:57;6.97;;;5.27;;
1719;SDS011;857;52.872;9.692;2023-05-10T07:33:24;9.03;;;7.13;;
1719;SDS011;857;52.872;9.692;2023-05-10T07:35:52;7.87;;;7.07;;
1719;SDS011;857;52.872;9.692;2023-05-10T07:38:20;8.83;;;6.90;;
1719;SDS011;857;52.872;9.692;2023-05-10T07:40:47;10.20;;;8.00;;
1719;SDS011;857;52.872;9.692;2023-05-10T07:43:16;9.03;;;7.53;;
1719;SDS011;857;52.872;9.692;2023-05-10T07:45:44;8.80;;;7.30;;
1719;SDS011;857;52.872;9.692;2023-05-10T07:48:12;8.00;;;7.20;;
1719;SDS011;857;52.872;9.692;2023-05-10T07:50:39;9.80;;;7.53;;
1719;SDS011;857;52.872;9.692;2023-05-10T07:53:07;8.87;;;7.70;;
1719;SDS011;857;52.872;9.692;2023-05-10T07:55:35;11.97;;;7.90;;
1719;SDS011;857;52.872;9.692;2023-05-10T07:58:02;8.73;;;7.80;;
1719;SDS011;857;52.872;9.692;2023-05-10T08:00:31;9.83;;;7.40;;
1719;SDS011;857;52.872;9.692;2023-05-10T08:02:59;10.20;;;7.97;;
1719;SDS011;857;52.872;9.692;2023-05-10T08:05:27;9.33;;;8.10;;
1719;SDS011;857;52.872;9.692;2023-05-10T08:07:54;10.10;;;7.30;;
1719;SDS011;857;52.872;9.692;2023-05-10T08:10:22;8.73;;;7.37;;
1719;SDS011;857;52.872;9.692;2023-05-10T08:12:50;12.97;;;8.20;;
1719;SDS011;857;52.872;9.692;2023-05-10T08:15:17;10.67;;;8.80;;
1719;SDS011;857;52.872;9.692;2023-05-10T08:17:47;7.60;;;6.50;;
1719;SDS011;857;52.872;9.692;2023-05-10T08:20:14;11.10;;;7.70;;
1719;SDS011;857;52.872;9.692;2023-05-10T08:22:44;11.40;;;8.63;;
1719;SDS011;857;52.872;9.692;2023-05-10T08:25:12;10.37;;;8.30;;
1719;SDS011;857;52.872;9.692;2023-05-10T08:27:58;12.83;;;8.30;;
1719;SDS011;857;52.872;9.692;2023-05-10T08:30:26;9.60;;;8.60;;
1719;SDS011;857;52.872;9.692;2023-05-10T08:32:55;10.83;;;8.90;;
1719;SDS011;857;52.872;9.692;2023-05-10T08:35:22;11.03;;;9.07;;
1719;SDS011;857;52.872;9.692;2023-05-10T08:37:50;11.70;;;9.70;;
1719;SDS011;857;52.872;9.692;2023-05-10T08:40:19;10.80;;;8.70;;
1719;SDS011;857;52.872;9.692;2023-05-10T08:42:48;11.53;;;9.50;;
1719;SDS011;857;52.872;9.692;2023-05-10T08:45:18;11.70;;;9.50;;
1719;SDS011;857;52.872;9.692;2023-05-10T08:47:46;12.77;;;10.07;;
1719;SDS011;857;52.872;9.692;2023-05-10T08:50:16;12.20;;;9.37;;
1719;SDS011;857;52.872;9.692;2023-05-10T08:52:44;12.00;;;10.37;;
1719;SDS011;857;52.872;9.692;2023-05-10T08:55:13;11.20;;;9.90;;
1719;SDS011;857;52.872;9.692;2023-05-10T08:57:41;13.47;;;10.00;;
1719;SDS011;857;52.872;9.692;2023-05-10T09:00:09;24.50;;;18.03;;
1719;SDS011;857;52.872;9.692;2023-05-10T09:02:37;14.40;;;11.03;;
1719;SDS011;857;52.872;9.692;2023-05-10T09:05:05;15.50;;;10.73;;
1719;SDS011;857;52.872;9.692;2023-05-10T09:07:34;11.70;;;9.80;;
1719;SDS011;857;52.872;9.692;2023-05-10T09:10:02;12.50;;;10.37;;
1719;SDS011;857;52.872;9.692;2023-05-10T09:12:31;13.83;;;10.60;;
1719;SDS011;857;52.872;9.692;2023-05-10T09:14:59;11.77;;;9.83;;
1719;SDS011;857;52.872;9.692;2023-05-10T09:17:27;15.67;;;11.53;;
1719;SDS011;857;52.872;9.692;2023-05-10T09:19:59;12.20;;;10.83;;
1719;SDS011;857;52.872;9.692;2023-05-10T09:22:26;14.97;;;11.37;;
1719;SDS011;857;52.872;9.692;2023-05-10T09:25:09;11.77;;;9.63;;
1719;SDS011;857;52.872;9.692;2023-05-10T09:27:37;11.73;;;9.60;;
1719;SDS011;857;52.872;9.692;2023-05-10T09:30:06;12.60;;;10.17;;
1719;SDS011;857;52.872;9.692;2023-05-10T09:32:37;13.00;;;10.03;;
1719;SDS011;857;52.872;9.692;2023-05-10T09:35:06;14.23;;;11.10;;
1719;SDS011;857;52.872;9.692;2023-05-10T09:37:33;15.13;;;11.10;;
1719;SDS011;857;52.872;9.692;2023-05-10T09:40:04;13.33;;;10.70;;
1719;SDS011;857;52.872;9.692;2023-05-10T09:42:33;7.03;;;5.83;;
1719;SDS011;857;52.872;9.692;2023-05-10T09:45:04;12.53;;;9.90;;
1719;SDS011;857;52.872;9.692;2023-05-10T09:47:32;11.30;;;9.00;;
1719;SDS011;857;52.872;9.692;2023-05-10T09:50:00;7.90;;;6.83;;
1719;SDS011;857;52.872;9.692;2023-05-10T09:52:30;9.50;;;8.50;;
1719;SDS011;857;52.872;9.692;2023-05-10T09:54:57;11.03;;;9.17;;
1719;SDS011;857;52.872;9.692;2023-05-10T09:57:25;8.73;;;7.33;;
1719;SDS011;857;52.872;9.692;2023-05-10T09:59:54;10.70;;;8.43;;
1719;SDS011;857;52.872;9.692;2023-05-10T10:02:28;11.90;;;8.40;;
1719;SDS011;857;52.872;9.692;2023-05-10T10:04:56;11.30;;;9.20;;
1719;SDS011;857;52.872;9.692;2023-05-10T10:07:23;11.30;;;9.10;;
1719;SDS011;857;52.872;9.692;2023-05-10T10:09:52;10.90;;;8.53;;
1719;SDS011;857;52.872;9.692;2023-05-10T10:12:19;9.20;;;8.03;;
1719;SDS011;857;52.872;9.692;2023-05-10T10:14:47;8.40;;;7.30;;
1719;SDS011;857;52.872;9.692;2023-05-10T10:17:17;5.90;;;5.30;;
1719;SDS011;857;52.872;9.692;2023-05-10T10:19:46;6.20;;;4.70;;
1719;SDS011;857;52.872;9.692;2023-05-10T10:22:14;4.97;;;4.47;;
1719;SDS011;857;52.872;9.692;2023-05-10T10:24:41;6.37;;;5.73;;
1719;SDS011;857;52.872;9.692;2023-05-10T10:27:18;6.53;;;5.50;;
1719;SDS011;857;52.872;9.692;2023-05-10T10:29:49;7.27;;;6.10;;
1719;SDS011;857;52.872;9.692;2023-05-10T10:32:22;7.43;;;6.17;;
1719;SDS011;857;52.872;9.692;2023-05-10T10:34:51;9.03;;;7.00;;
1719;SDS011;857;52.872;9.692;2023-05-10T10:37:19;8.17;;;6.53;;
1719;SDS011;857;52.872;9.692;2023-05-10T10:39:47;9.00;;;6.37;;
1719;SDS011;857;52.872;9.692;2023-05-10T10:45:10;8.30;;;6.77;;
1719;SDS011;857;52.872;9.692;2023-05-10T10:47:40;8.43;;;7.10;;
1719;SDS011;857;52.872;9.692;2023-05-10T10:50:09;6.47;;;5.20;;
1719;SDS011;857;52.872;9.692;2023-05-10T10:52:38;8.77;;;6.43;;
1719;SDS011;857;52.872;9.692;2023-05-10T10:55:07;7.50;;;6.70;;
1719;SDS011;857;52.872;9.692;2023-05-10T10:57:45;7.93;;;6.83;;
1719;SDS011;857;52.872;9.692;2023-05-10T11:00:20;8.13;;;7.10;;
1719;SDS011;857;52.872;9.692;2023-05-10T11:02:50;7.47;;;6.70;;
1719;SDS011;857;52.872;9.692;2023-05-10T11:08:11;7.93;;;6.40;;
1719;SDS011;857;52.872;9.692;2023-05-10T11:10:39;8.10;;;6.83;;
1719;SDS011;857;52.872;9.692;2023-05-10T11:13:08;7.63;;;6.27;;
1719;SDS011;857;52.872;9.692;2023-05-10T11:15:37;5.70;;;5.20;;
1719;SDS011;857;52.872;9.692;2023-05-10T11:18:18;7.33;;;6.33;;
1719;SDS011;857;52.872;9.692;2023-05-10T11:20:50;7.17;;;6.17;;
1719;SDS011;857;52.872;9.692;2023-05-10T11:23:17;8.47;;;6.20;;
1719;SDS011;857;52.872;9.692;2023-05-10T11:25:47;6.20;;;5.40;;
1719;SDS011;857;52.872;9.692;2023-05-10T11:28:16;5.83;;;5.23;;
1719;SDS011;857;52.872;9.692;2023-05-10T11:30:44;6.60;;;5.63;;
1719;SDS011;857;52.872;9.692;2023-05-10T11:33:15;4.67;;;4.20;;
1719;SDS011;857;52.872;9.692;2023-05-10T11:35:44;5.73;;;4.70;;
1719;SDS011;857;52.872;9.692;2023-05-10T11:38:14;7.33;;;5.77;;
1719;SDS011;857;52.872;9.692;2023-05-10T11:47:40;7.30;;;5.97;;
1719;SDS011;857;52.872;9.692;2023-05-10T11:50:09;5.20;;;4.70;;
1719;SDS011;857;52.872;9.692;2023-05-10T11:52:38;5.97;;;4.90;;
1719;SDS011;857;52.872;9.692;2023-05-10T11:55:06;4.87;;;3.63;;
1719;SDS011;857;52.872;9.692;2023-05-10T11:57:34;5.10;;;4.30;;
1719;SDS011;857;52.872;9.692;2023-05-10T12:00:04;7.50;;;4.57;;
1719;SDS011;857;52.872;9.692;2023-05-10T12:02:34;6.30;;;5.10;;
1719;SDS011;857;52.872;9.692;2023-05-10T12:05:05;6.80;;;5.40;;
1719;SDS011;857;52.872;9.692;2023-05-10T12:07:33;4.17;;;3.80;;
1719;SDS011;857;52.872;9.692;2023-05-10T12:10:09;5.60;;;4.50;;
1719;SDS011;857;52.872;9.692;2023-05-10T12:12:38;4.10;;;3.70;;
1719;SDS011;857;52.872;9.692;2023-05-10T12:15:10;4.93;;;4.43;;
1719;SDS011;857;52.872;9.692;2023-05-10T12:17:38;4.30;;;3.87;;
1719;SDS011;857;52.872;9.692;2023-05-10T12:20:12;3.40;;;3.10;;
1719;SDS011;857;52.872;9.692;2023-05-10T12:22:41;3.27;;;2.97;;
1719;SDS011;857;52.872;9.692;2023-05-10T12:25:12;4.97;;;4.20;;
1719;SDS011;857;52.872;9.692;2023-05-10T12:27:40;5.57;;;4.63;;
1719;SDS011;857;52.872;9.692;2023-05-10T12:30:09;3.57;;;3.27;;
1719;SDS011;857;52.872;9.692;2023-05-10T12:32:37;6.13;;;5.53;;
1719;SDS011;857;52.872;9.692;2023-05-10T12:35:05;5.60;;;5.00;;
1719;SDS011;857;52.872;9.692;2023-05-10T12:37:33;5.50;;;4.90;;
1719;SDS011;857;52.872;9.692;2023-05-10T12:40:08;4.97;;;4.17;;
1719;SDS011;857;52.872;9.692;2023-05-10T12:42:38;5.73;;;4.13;;
1719;SDS011;857;52.872;9.692;2023-05-10T12:45:06;4.17;;;3.77;;
1719;SDS011;857;52.872;9.692;2023-05-10T12:47:34;5.10;;;3.87;;
1719;SDS011;857;52.872;9.692;2023-05-10T12:50:03;6.33;;;4.97;;
1719;SDS011;857;52.872;9.692;2023-05-10T12:52:31;6.43;;;5.10;;
1719;SDS011;857;52.872;9.692;2023-05-10T12:54:58;6.10;;;4.97;;
1719;SDS011;857;52.872;9.692;2023-05-10T12:57:26;5.47;;;4.97;;
1719;SDS011;857;52.872;9.692;2023-05-10T12:59:55;6.80;;;6.10;;
1719;SDS011;857;52.872;9.692;2023-05-10T13:02:23;5.03;;;4.40;;
1719;SDS011;857;52.872;9.692;2023-05-10T13:04:51;10.30;;;6.50;;
1719;SDS011;857;52.872;9.692;2023-05-10T13:07:18;7.00;;;5.57;;
1719;SDS011;857;52.872;9.692;2023-05-10T13:09:46;8.90;;;7.03;;
1719;SDS011;857;52.872;9.692;2023-05-10T13:12:14;10.37;;;7.17;;
1719;SDS011;857;52.872;9.692;2023-05-10T13:14:41;6.90;;;5.00;;
1719;SDS011;857;52.872;9.692;2023-05-10T13:17:11;9.70;;;6.10;;
1719;SDS011;857;52.872;9.692;2023-05-10T13:19:38;8.90;;;6.60;;
1719;SDS011;857;52.872;9.692;2023-05-10T13:22:06;4.90;;;4.40;;
1719;SDS011;857;52.872;9.692;2023-05-10T13:24:34;7.47;;;5.50;;
1719;SDS011;857;52.872;9.692;2023-05-10T13:27:01;9.00;;;6.60;;
1719;SDS011;857;52.872;9.692;2023-05-10T13:29:29;10.00;;;6.80;;
1719;SDS011;857;52.872;9.692;2023-05-10T13:31:57;12.00;;;7.40;;
1719;SDS011;857;52.872;9.692;2023-05-10T13:34:26;8.77;;;5.50;;
1719;SDS011;857;52.872;9.692;2023-05-10T13:36:54;7.30;;;5.60;;
1719;SDS011;857;52.872;9.692;2023-05-10T13:39:22;10.80;;;6.57;;
1719;SDS011;857;52.872;9.692;2023-05-10T13:41:49;10.00;;;7.10;;
1719;SDS011;857;52.872;9.692;2023-05-10T13:44:17;11.33;;;7.07;;
1719;SDS011;857;52.872;9.692;2023-05-10T13:46:45;10.43;;;7.03;;
1719;SDS011;857;52.872;9.692;2023-05-10T13:49:12;9.60;;;6.97;;
1719;SDS011;857;52.872;9.692;2023-05-10T13:51:42;7.80;;;5.57;;
1719;SDS011;857;52.872;9.692;2023-05-10T13:54:10;9.27;;;6.60;;
1719;SDS011;857;52.872;9.692;2023-05-10T13:56:38;5.80;;;4.80;;
1719;SDS011;857;52.872;9.692;2023-05-10T13:59:06;9.63;;;6.17;;
1719;SDS011;857;52.872;9.692;2023-05-10T14:01:34;8.10;;;5.93;;
1719;SDS011;857;52.872;9.692;2023-05-10T14:04:01;8.33;;;6.43;;
1719;SDS011;857;52.872;9.692;2023-05-10T14:06:29;5.97;;;5.17;;
1719;SDS011;857;52.872;9.692;2023-05-10T14:08:58;5.33;;;4.60;;
1719;SDS011;857;52.872;9.692;2023-05-10T14:11:26;8.33;;;4.93;;
1719;SDS011;857;52.872;9.692;2023-05-10T14:13:54;9.67;;;6.40;;
1719;SDS011;857;52.872;9.692;2023-05-10T14:16:21;10.83;;;6.10;;
1719;SDS011;857;52.872;9.692;2023-05-10T14:18:49;3.70;;;3.30;;
1719;SDS011;857;52.872;9.692;2023-05-10T14:21:17;7.00;;;5.50;;
1719;SDS011;857;52.872;9.692;2023-05-10T14:23:44;7.80;;;5.30;;
1719;SDS011;857;52.872;9.692;2023-05-10T14:26:13;7.47;;;5.87;;
1719;SDS011;857;52.872;9.692;2023-05-10T14:28:41;6.33;;;5.13;;
1719;SDS011;857;52.872;9.692;2023-05-10T14:31:09;7.50;;;5.70;;
1719;SDS011;857;52.872;9.692;2023-05-10T14:33:37;5.50;;;4.27;;
1719;SDS011;857;52.872;9.692;2023-05-10T14:36:05;5.00;;;3.40;;
1719;SDS011;857;52.872;9.692;2023-05-10T14:38:32;5.03;;;3.97;;
1719;SDS011;857;52.872;9.692;2023-05-10T14:41:00;3.43;;;3.13;;
1719;SDS011;857;52.872;9.692;2023-05-10T14:43:29;4.23;;;3.70;;
1719;SDS011;857;52.872;9.692;2023-05-10T14:45:57;6.37;;;4.60;;
1719;SDS011;857;52.872;9.692;2023-05-10T14:48:25;7.50;;;5.40;;
1719;SDS011;857;52.872;9.692;2023-05-10T14:50:52;7.37;;;5.30;;
1719;SDS011;857;52.872;9.692;2023-05-10T14:53:20;7.30;;;6.03;;
1719;SDS011;857;52.872;9.692;2023-05-10T14:55:48;7.43;;;6.00;;
1719;SDS011;857;52.872;9.692;2023-05-10T14:58:15;8.53;;;6.00;;
1719;SDS011;857;52.872;9.692;2023-05-10T15:00:44;9.80;;;6.20;;
1719;SDS011;857;52.872;9.692;2023-05-10T15:03:12;6.53;;;5.03;;
1719;SDS011;857;52.872;9.692;2023-05-10T15:05:40;5.50;;;4.40;;
1719;SDS011;857;52.872;9.692;2023-05-10T15:08:07;3.67;;;2.77;;
1719;SDS011;857;52.872;9.692;2023-05-10T15:10:35;3.40;;;3.10;;
1719;SDS011;857;52.872;9.692;2023-05-10T15:13:03;4.73;;;3.70;;
1719;SDS011;857;52.872;9.692;2023-05-10T15:15:31;4.07;;;2.70;;
1719;SDS011;857;52.872;9.692;2023-05-10T15:18:00;4.63;;;3.50;;
1719;SDS011;857;52.872;9.692;2023-05-10T15:20:28;3.57;;;2.70;;
1719;SDS011;857;52.872;9.692;2023-05-10T15:22:55;3.37;;;2.90;;
1719;SDS011;857;52.872;9.692;2023-05-10T15:25:23;3.80;;;3.40;;
1719;SDS011;857;52.872;9.692;2023-05-10T15:27:51;3.90;;;3.47;;
1719;SDS011;857;52.872;9.692;2023-05-10T15:30:19;3.43;;;3.13;;
1719;SDS011;857;52.872;9.692;2023-05-10T15:32:49;3.83;;;3.13;;
1719;SDS011;857;52.872;9.692;2023-05-10T15:35:19;3.90;;;3.23;;
1719;SDS011;857;52.872;9.692;2023-05-10T15:37:47;3.90;;;2.97;;
1719;SDS011;857;52.872;9.692;2023-05-10T15:40:14;3.73;;;3.13;;
1719;SDS011;857;52.872;9.692;2023-05-10T15:42:42;5.23;;;3.47;;
1719;SDS011;857;52.872;9.692;2023-05-10T15:45:10;4.30;;;3.60;;
1719;SDS011;857;52.872;9.692;2023-05-10T15:47:38;2.90;;;2.70;;
1719;SDS011;857;52.872;9.692;2023-05-10T15:50:06;3.23;;;2.93;;
1719;SDS011;857;52.872;9.692;2023-05-10T15:52:35;3.60;;;3.10;;
1719;SDS011;857;52.872;9.692;2023-05-10T15:55:03;4.80;;;4.07;;